Beaver Meadow, New York
Current Conditions -  °F | °C
As of 12:35 AM on Thursday 27 Nov 2014 (Local Time) from KN03 Reporting Station
Light Snow Light Snow  
Wind Chill: 28°   Ceiling: 2800
Heat Index: 28°   Visibility: 2.5mi
Dew Point: 28°   Wind: 3mph
Humidity: 100%   Direction: 340°NNW
Pressure: 29.95"   Gusts: NA
Location:  42.6324°N, 75.6222°W
Report Text: KN03 270535Z AUTO 34003KT 2 1/2SM -SN OVC028 M02/M02 A2995 RMK AO2
Loading
Personal Weather Stations






























Interactive Weather Map New forecast layout! Learn more

10-Day Weather Forecast

Advertisements
Track Severe Weather on mobile